Aérodrome :
LOGIN :

S'inscrire | Disclaimer

   EN    FR    IT 

 










Légende :    VFR   VFR Marginal   IFR   IFR Intensif   IFR Très Intensif
Visi : 
Plafond : 
>= 8 km
>= 3000ft
5 à 8 km
1000 à 3000 ft
1500m à 5 km
500 à 1000 ft
800 à 1500m
200 à 500 ft
< 800m
< 200 ft
Symboles :   Orages  Brouillard  Fortes neiges  Fortes précipitations  Vent > 20 kt
SIGMETs :   Divers  Orages  Givrage  Turbulence  Onde Orograph.  Cendres Volcan.







- Altitude de l'aérodrome : 32 ft
- Code IATA : LKZ


EGUL - RAF Lakenheath

DERNIER METAR :
  • 230156Z AUTO 25005KT 9999 OVC025 08/06 A3033 RMK AO2 SLP274 T00800063 $

METARs EXPIRÉS :
  • 230056Z AUTO 24007KT 9999 CLR 07/05 A3033 RMK AO2 SLP274 T00690050 $

TAF AMD TAF EGUL
Valide du 22 à 14h jusqu'au 23 à 18h UTC


221512Z 2214/2318 22012G18KT 9999 BKN015 QNH3028INS
BECMG 2214/2215 24012G18KT 9999 BKN020 QNH3026INS
BECMG 2223/2224 27009KT 9999 OVC015 QNH3035INS
TEMPO 2300/2306 OVC010
BECMG 2307/2308 33012KT 9999 SCT015 BKN020 QNH3049INS TX14/2215Z TN06/2306Z LAST NO AMDS AFT 2214 NEXT 2420
Pas de NOTAMs connus pour ce terrain.



MET'MAP, la Météo Aéronautique d'un coup d'oeil ! - Copyright ORBIFLY Décembre 2007 - Disclaimer

ORBIFLY MET'MAP TEAM :

Programmation & Développement : Alexandra Zaïnal
Conception & Développement : Baudouin d'Aumeries
Co-Programmation & Développement : Marc-Olivier Méhu
Soutien technique & logistique : Manuel Goepfert

Contact : metmap@orbifly.com




SOURCES & CREDITS :

   NOAA